This is the latest recevied weather packets stored in our database for station/object F1GZH-2. If no packets are shown the sender has not sent any weather packets the latest 10 day(s).
| Time | Temp. | Humidity | Pressure | Rain* | Wind** | Luminosity | Snow |
|---|---|---|---|---|---|---|---|
| 1778142552 | 11.11° C | 10% | 1021.1 hPa | 0 mm | - | - | - |
| 1778141350 | 11.11° C | 10% | 1020.9 hPa | 0 mm | - | - | - |
| 1778140149 | 11.11° C | 10% | 1020.9 hPa | 0 mm | - | - | - |
| 1778087091 | 10.56° C | 74% | 1015.6 hPa | 0 mm | - | - | - |
| 1778085890 | 11.11° C | 77% | 1015.5 hPa | 0 mm | - | - | - |
| 1778084689 | 11.67° C | 78% | 1015.5 hPa | 0 mm | - | - | - |
| 1778083488 | 12.78° C | 78% | 1015.3 hPa | 0 mm | - | - | - |
| 1778082287 | 12.78° C | 78% | 1015.2 hPa | 0 mm | - | - | - |
| 1778081086 | 13.89° C | 77% | 1015.2 hPa | 0 mm | - | - | - |
| 1778079885 | 14.44° C | 77% | 1015.2 hPa | 0 mm | - | - | - |
| 1778078683 | 13.89° C | 78% | 1015.1 hPa | 0 mm | - | - | - |
| 1778077482 | 12.78° C | 75% | 1015.1 hPa | 0 mm | - | - | - |
| 1778076281 | 11.67° C | 73% | 1015.3 hPa | 0 mm | - | - | - |
| 1778075080 | 11.11° C | 70% | 1015.2 hPa | 0 mm | - | - | - |
| 1778073879 | 11.67° C | 70% | 1015.3 hPa | 0 mm | - | - | - |
| 1778072678 | 12.22° C | 66% | 1015.1 hPa | 0 mm | - | - | - |
| 1778071477 | 11.67° C | 68% | 1015.1 hPa | 0 mm | - | - | - |
| 1778070275 | 11.11° C | 71% | 1015 hPa | 0 mm | - | - | - |
| 1778069074 | 11.67° C | 76% | 1014.8 hPa | 0 mm | - | - | - |
| 1778067873 | 12.78° C | 75% | 1014.6 hPa | 0 mm | - | - | - |
| 1778066672 | 12.22° C | 68% | 1014.6 hPa | 0 mm | - | - | - |
| 1778065471 | 11.67° C | 71% | 1014.4 hPa | 0 mm | - | - | - |
| 1778064270 | 12.22° C | 69% | 1014.3 hPa | 0 mm | - | - | - |
| 1778063069 | 12.78° C | 70% | 1014.1 hPa | 0 mm | - | - | - |
| 1778061868 | 13.33° C | 60% | 1013.8 hPa | 0 mm | - | - | - |
* Rain latest hour (hover to see other rain measurements)
** Current wind speed in m/s (hover to see current wind gust speed)